sensor_id;sensor_type;location;lat;lon;timestamp;pressure;altitude;pressure_sealevel;temperature;humidity
39301;BME280;25019;42.626;23.380;2023-04-21T00:00:22;94017.97;;;9.28;81.69
39301;BME280;25019;42.626;23.380;2023-04-21T00:02:48;94027.38;;;9.41;81.53
39301;BME280;25019;42.626;23.380;2023-04-21T00:05:14;93919.34;;;8.71;81.49
39301;BME280;25019;42.626;23.380;2023-04-21T00:07:40;94024.00;;;9.46;81.25
39301;BME280;25019;42.626;23.380;2023-04-21T00:10:07;94022.38;;;9.44;80.85
39301;BME280;25019;42.626;23.380;2023-04-21T00:12:33;94020.78;;;9.43;80.63
39301;BME280;25019;42.626;23.380;2023-04-21T00:14:58;93997.63;;;9.34;80.38
39301;BME280;25019;42.626;23.380;2023-04-21T00:17:25;93961.34;;;9.12;80.24
39301;BME280;25019;42.626;23.380;2023-04-21T00:19:50;93906.38;;;8.69;79.76
39301;BME280;25019;42.626;23.380;2023-04-21T00:22:16;94026.38;;;9.47;80.19
39301;BME280;25019;42.626;23.380;2023-04-21T00:24:43;94026.66;;;9.51;79.94
39301;BME280;25019;42.626;23.380;2023-04-21T00:27:09;94024.00;;;9.51;79.44
39301;BME280;25019;42.626;23.380;2023-04-21T00:29:37;94021.88;;;9.48;80.08
39301;BME280;25019;42.626;23.380;2023-04-21T00:32:03;94025.03;;;9.44;80.03
39301;BME280;25019;42.626;23.380;2023-04-21T00:34:33;93985.31;;;9.22;79.73
39301;BME280;25019;42.626;23.380;2023-04-21T00:36:59;93991.97;;;9.25;79.68
39301;BME280;25019;42.626;23.380;2023-04-21T00:39:24;94030.06;;;9.46;79.72
39301;BME280;25019;42.626;23.380;2023-04-21T00:41:50;94027.13;;;9.42;79.83
39301;BME280;25019;42.626;23.380;2023-04-21T00:44:16;93993.47;;;9.16;80.54
39301;BME280;25019;42.626;23.380;2023-04-21T00:46:42;94012.59;;;9.23;81.05
39301;BME280;25019;42.626;23.380;2023-04-21T00:49:08;93960.78;;;8.82;83.35
39301;BME280;25019;42.626;23.380;2023-04-21T00:51:35;94022.13;;;9.19;83.85
39301;BME280;25019;42.626;23.380;2023-04-21T00:54:03;93963.63;;;8.76;84.84
39301;BME280;25019;42.626;23.380;2023-04-21T00:56:31;94007.56;;;8.99;85.24
39301;BME280;25019;42.626;23.380;2023-04-21T00:58:58;94007.22;;;8.90;86.78
39301;BME280;25019;42.626;23.380;2023-04-21T01:01:23;94011.47;;;8.91;86.51
39301;BME280;25019;42.626;23.380;2023-04-21T01:03:50;94017.03;;;8.90;86.59
39301;BME280;25019;42.626;23.380;2023-04-21T01:06:16;94021.69;;;8.82;87.47
39301;BME280;25019;42.626;23.380;2023-04-21T01:08:45;94010.75;;;8.74;87.78
39301;BME280;25019;42.626;23.380;2023-04-21T01:11:13;93941.03;;;8.06;89.29
39301;BME280;25019;42.626;23.380;2023-04-21T01:13:39;94006.91;;;8.47;89.77
39301;BME280;25019;42.626;23.380;2023-04-21T01:16:06;94009.53;;;8.25;90.58
39301;BME280;25019;42.626;23.380;2023-04-21T01:18:33;93967.41;;;7.84;91.67
39301;BME280;25019;42.626;23.380;2023-04-21T01:20:58;94003.81;;;7.94;92.05
39301;BME280;25019;42.626;23.380;2023-04-21T01:23:26;93983.59;;;7.71;92.72
39301;BME280;25019;42.626;23.380;2023-04-21T01:25:52;93895.56;;;7.02;94.11
39301;BME280;25019;42.626;23.380;2023-04-21T01:28:22;93995.41;;;7.80;93.82
39301;BME280;25019;42.626;23.380;2023-04-21T01:30:48;93999.22;;;7.89;91.20
39301;BME280;25019;42.626;23.380;2023-04-21T01:33:13;93991.53;;;8.05;90.12
39301;BME280;25019;42.626;23.380;2023-04-21T01:35:39;93972.75;;;8.06;88.15
39301;BME280;25019;42.626;23.380;2023-04-21T01:38:05;94002.78;;;8.34;87.77
39301;BME280;25019;42.626;23.380;2023-04-21T01:40:31;93992.19;;;8.34;86.69
39301;BME280;25019;42.626;23.380;2023-04-21T01:42:56;94002.59;;;8.58;85.76
39301;BME280;25019;42.626;23.380;2023-04-21T01:45:22;93954.47;;;8.22;85.24
39301;BME280;25019;42.626;23.380;2023-04-21T01:47:48;93945.91;;;8.37;84.24
39301;BME280;25019;42.626;23.380;2023-04-21T01:50:14;93996.50;;;8.80;83.37
39301;BME280;25019;42.626;23.380;2023-04-21T01:52:41;93881.38;;;8.16;82.60
39301;BME280;25019;42.626;23.380;2023-04-21T01:55:07;94005.13;;;8.92;82.68
39301;BME280;25019;42.626;23.380;2023-04-21T01:57:32;93989.22;;;8.70;84.31
39301;BME280;25019;42.626;23.380;2023-04-21T01:59:58;93886.81;;;7.87;85.50
39301;BME280;25019;42.626;23.380;2023-04-21T02:02:25;93972.06;;;8.33;86.38
39301;BME280;25019;42.626;23.380;2023-04-21T02:04:52;93986.69;;;8.36;86.67
39301;BME280;25019;42.626;23.380;2023-04-21T02:07:17;93985.56;;;8.32;86.96
39301;BME280;25019;42.626;23.380;2023-04-21T02:09:43;94000.50;;;8.43;86.92
39301;BME280;25019;42.626;23.380;2023-04-21T02:12:09;93944.41;;;8.02;86.38
39301;BME280;25019;42.626;23.380;2023-04-21T02:14:36;94005.50;;;8.39;87.27
39301;BME280;25019;42.626;23.380;2023-04-21T02:17:03;93951.91;;;8.10;86.31
39301;BME280;25019;42.626;23.380;2023-04-21T02:19:28;93992.91;;;8.47;85.40
39301;BME280;25019;42.626;23.380;2023-04-21T02:21:54;93991.53;;;8.44;84.95
39301;BME280;25019;42.626;23.380;2023-04-21T02:24:21;93971.31;;;8.38;84.00
39301;BME280;25019;42.626;23.380;2023-04-21T02:26:46;93910.25;;;8.00;84.43
39301;BME280;25019;42.626;23.380;2023-04-21T02:29:12;94001.25;;;8.56;83.88
39301;BME280;25019;42.626;23.380;2023-04-21T02:31:38;93995.47;;;8.59;83.84
39301;BME280;25019;42.626;23.380;2023-04-21T02:34:04;93992.06;;;8.63;83.54
39301;BME280;25019;42.626;23.380;2023-04-21T02:36:30;93922.19;;;8.20;83.46
39301;BME280;25019;42.626;23.380;2023-04-21T02:38:56;93932.56;;;8.27;82.97
39301;BME280;25019;42.626;23.380;2023-04-21T02:41:22;93991.88;;;8.70;83.49
39301;BME280;25019;42.626;23.380;2023-04-21T02:43:48;93937.69;;;8.33;83.72
39301;BME280;25019;42.626;23.380;2023-04-21T02:46:14;93983.34;;;8.63;84.07
39301;BME280;25019;42.626;23.380;2023-04-21T02:48:40;93973.72;;;8.57;84.23
39301;BME280;25019;42.626;23.380;2023-04-21T02:51:13;93991.19;;;8.80;84.39
39301;BME280;25019;42.626;23.380;2023-04-21T02:53:41;93913.31;;;8.31;84.37
39301;BME280;25019;42.626;23.380;2023-04-21T02:56:07;93875.94;;;8.05;84.49
39301;BME280;25019;42.626;23.380;2023-04-21T02:58:36;93956.63;;;8.64;84.42
39301;BME280;25019;42.626;23.380;2023-04-21T03:01:03;93991.25;;;8.85;84.31
39301;BME280;25019;42.626;23.380;2023-04-21T03:03:29;93946.50;;;8.61;83.92
39301;BME280;25019;42.626;23.380;2023-04-21T03:06:00;93991.41;;;8.95;84.19
39301;BME280;25019;42.626;23.380;2023-04-21T03:08:26;94001.78;;;9.02;83.92
39301;BME280;25019;42.626;23.380;2023-04-21T03:10:52;93998.09;;;9.03;84.13
39301;BME280;25019;42.626;23.380;2023-04-21T03:13:20;93986.38;;;8.99;84.08
39301;BME280;25019;42.626;23.380;2023-04-21T03:15:50;93975.72;;;8.94;84.05
39301;BME280;25019;42.626;23.380;2023-04-21T03:18:16;93986.44;;;9.04;83.82
39301;BME280;25019;42.626;23.380;2023-04-21T03:20:42;93931.00;;;8.70;83.71
39301;BME280;25019;42.626;23.380;2023-04-21T03:23:08;93996.34;;;9.14;83.34
39301;BME280;25019;42.626;23.380;2023-04-21T03:25:33;93924.41;;;8.73;82.89
39301;BME280;25019;42.626;23.380;2023-04-21T03:28:00;93998.84;;;9.26;82.63
39301;BME280;25019;42.626;23.380;2023-04-21T03:30:25;93985.56;;;9.21;81.91
39301;BME280;25019;42.626;23.380;2023-04-21T03:32:51;93910.38;;;8.72;81.41
39301;BME280;25019;42.626;23.380;2023-04-21T03:35:17;94013.88;;;9.42;81.13
39301;BME280;25019;42.626;23.380;2023-04-21T03:37:43;93974.56;;;9.34;80.48
39301;BME280;25019;42.626;23.380;2023-04-21T03:40:09;93892.16;;;8.76;80.40
39301;BME280;25019;42.626;23.380;2023-04-21T03:42:36;94014.84;;;9.58;80.10
39301;BME280;25019;42.626;23.380;2023-04-21T03:45:03;94019.38;;;9.63;79.79
39301;BME280;25019;42.626;23.380;2023-04-21T03:47:31;93948.16;;;9.17;79.73
39301;BME280;25019;42.626;23.380;2023-04-21T03:49:58;93975.91;;;9.37;80.45
39301;BME280;25019;42.626;23.380;2023-04-21T03:52:23;93934.09;;;9.11;79.88
39301;BME280;25019;42.626;23.380;2023-04-21T03:54:49;94010.56;;;9.57;79.43
39301;BME280;25019;42.626;23.380;2023-04-21T03:57:15;94014.06;;;9.63;79.12
39301;BME280;25019;42.626;23.380;2023-04-21T03:59:42;93971.06;;;9.28;79.20
39301;BME280;25019;42.626;23.380;2023-04-21T04:02:08;94021.47;;;9.61;79.08
39301;BME280;25019;42.626;23.380;2023-04-21T04:04:34;93976.13;;;9.30;80.22
39301;BME280;25019;42.626;23.380;2023-04-21T04:07:00;94026.72;;;9.56;81.00
39301;BME280;25019;42.626;23.380;2023-04-21T04:09:26;93953.00;;;8.98;81.93
39301;BME280;25019;42.626;23.380;2023-04-21T04:11:51;93926.47;;;8.93;81.21
39301;BME280;25019;42.626;23.380;2023-04-21T04:14:17;93985.00;;;9.73;79.52
39301;BME280;25019;42.626;23.380;2023-04-21T04:16:43;94021.94;;;10.18;76.72
39301;BME280;25019;42.626;23.380;2023-04-21T04:19:08;94029.03;;;10.07;76.91
39301;BME280;25019;42.626;23.380;2023-04-21T04:21:34;94037.13;;;10.28;77.09
39301;BME280;25019;42.626;23.380;2023-04-21T04:24:00;94038.69;;;10.61;76.36
39301;BME280;25019;42.626;23.380;2023-04-21T04:26:30;94049.69;;;10.81;76.72
39301;BME280;25019;42.626;23.380;2023-04-21T04:28:58;93999.81;;;10.93;75.55
39301;BME280;25019;42.626;23.380;2023-04-21T04:31:24;94030.28;;;11.59;73.11
39301;BME280;25019;42.626;23.380;2023-04-21T04:33:53;94055.84;;;11.76;70.81
39301;BME280;25019;42.626;23.380;2023-04-21T04:36:19;93986.75;;;10.81;70.92
39301;BME280;25019;42.626;23.380;2023-04-21T04:38:44;94055.59;;;10.93;72.07
39301;BME280;25019;42.626;23.380;2023-04-21T04:41:10;94054.91;;;10.65;73.04
39301;BME280;25019;42.626;23.380;2023-04-21T04:43:37;94018.25;;;10.24;74.00
39301;BME280;25019;42.626;23.380;2023-04-21T04:46:04;94042.09;;;10.52;74.03
39301;BME280;25019;42.626;23.380;2023-04-21T04:48:30;94045.31;;;10.59;73.88
39301;BME280;25019;42.626;23.380;2023-04-21T04:50:56;93949.38;;;10.02;73.73
39301;BME280;25019;42.626;23.380;2023-04-21T04:53:22;94050.72;;;10.79;73.84
39301;BME280;25019;42.626;23.380;2023-04-21T04:55:48;94068.84;;;10.88;73.85
39301;BME280;25019;42.626;23.380;2023-04-21T04:58:13;94067.84;;;11.04;73.31
39301;BME280;25019;42.626;23.380;2023-04-21T05:00:39;93995.88;;;10.53;73.59
39301;BME280;25019;42.626;23.380;2023-04-21T05:03:05;94062.50;;;10.94;74.04
39301;BME280;25019;42.626;23.380;2023-04-21T05:05:30;94055.88;;;10.97;73.47
39301;BME280;25019;42.626;23.380;2023-04-21T05:07:56;94059.91;;;11.09;72.92
39301;BME280;25019;42.626;23.380;2023-04-21T05:10:22;94065.53;;;11.18;72.31
39301;BME280;25019;42.626;23.380;2023-04-21T05:12:48;93994.13;;;10.74;72.68
39301;BME280;25019;42.626;23.380;2023-04-21T05:15:14;94057.09;;;11.37;72.21
39301;BME280;25019;42.626;23.380;2023-04-21T05:17:39;94075.31;;;11.92;70.22
39301;BME280;25019;42.626;23.380;2023-04-21T05:20:06;93932.69;;;11.54;68.91
39301;BME280;25019;42.626;23.380;2023-04-21T05:22:50;94051.03;;;12.92;66.57
39301;BME280;25019;42.626;23.380;2023-04-21T05:25:16;94040.41;;;13.47;64.43
39301;BME280;25019;42.626;23.380;2023-04-21T05:27:42;94038.66;;;13.72;63.72
39301;BME280;25019;42.626;23.380;2023-04-21T05:30:08;94064.00;;;14.19;61.66
39301;BME280;25019;42.626;23.380;2023-04-21T05:32:34;94060.63;;;14.03;62.78
39301;BME280;25019;42.626;23.380;2023-04-21T05:34:59;94058.53;;;14.00;62.32
39301;BME280;25019;42.626;23.380;2023-04-21T05:37:25;94063.50;;;13.72;62.09
39301;BME280;25019;42.626;23.380;2023-04-21T05:39:51;94016.75;;;13.25;62.94
39301;BME280;25019;42.626;23.380;2023-04-21T05:42:17;94060.09;;;13.61;63.31
39301;BME280;25019;42.626;23.380;2023-04-21T05:44:43;94071.44;;;14.22;61.70
39301;BME280;25019;42.626;23.380;2023-04-21T05:47:09;94063.81;;;14.40;60.88
39301;BME280;25019;42.626;23.380;2023-04-21T05:49:34;94052.38;;;14.64;60.43
39301;BME280;25019;42.626;23.380;2023-04-21T05:52:00;94007.81;;;14.59;60.09
39301;BME280;25019;42.626;23.380;2023-04-21T05:54:26;94062.00;;;14.94;59.21
39301;BME280;25019;42.626;23.380;2023-04-21T05:56:51;93993.94;;;14.28;59.39
39301;BME280;25019;42.626;23.380;2023-04-21T05:59:17;93998.81;;;14.20;59.70
39301;BME280;25019;42.626;23.380;2023-04-21T06:01:43;94010.16;;;13.67;61.52
39301;BME280;25019;42.626;23.380;2023-04-21T06:04:08;93985.22;;;13.37;61.79
39301;BME280;25019;42.626;23.380;2023-04-21T06:06:34;94056.63;;;13.56;62.90
39301;BME280;25019;42.626;23.380;2023-04-21T06:09:00;94033.63;;;13.10;63.97
39301;BME280;25019;42.626;23.380;2023-04-21T06:11:26;94050.34;;;13.26;64.41
39301;BME280;25019;42.626;23.380;2023-04-21T06:13:51;94055.22;;;13.13;64.80
39301;BME280;25019;42.626;23.380;2023-04-21T06:16:19;94038.25;;;12.88;65.43
39301;BME280;25019;42.626;23.380;2023-04-21T06:18:44;94066.94;;;13.12;65.71
39301;BME280;25019;42.626;23.380;2023-04-21T06:21:10;93992.25;;;12.52;66.50
39301;BME280;25019;42.626;23.380;2023-04-21T06:23:36;94048.13;;;12.78;66.75
39301;BME280;25019;42.626;23.380;2023-04-21T06:26:05;94068.13;;;12.65;67.02
39301;BME280;25019;42.626;23.380;2023-04-21T06:28:32;94058.03;;;12.41;68.29
39301;BME280;25019;42.626;23.380;2023-04-21T06:31:01;94052.16;;;12.44;68.72
39301;BME280;25019;42.626;23.380;2023-04-21T06:33:28;94055.88;;;12.53;68.68
39301;BME280;25019;42.626;23.380;2023-04-21T06:35:54;94056.16;;;12.52;68.77
39301;BME280;25019;42.626;23.380;2023-04-21T06:38:20;94008.78;;;12.07;68.76
39301;BME280;25019;42.626;23.380;2023-04-21T06:40:46;94060.97;;;12.34;69.09
39301;BME280;25019;42.626;23.380;2023-04-21T06:43:12;94045.78;;;12.24;69.79
39301;BME280;25019;42.626;23.380;2023-04-21T06:45:37;94026.09;;;12.05;70.06
39301;BME280;25019;42.626;23.380;2023-04-21T06:48:03;94048.47;;;12.09;70.16
39301;BME280;25019;42.626;23.380;2023-04-21T06:50:29;94015.44;;;11.84;70.87
39301;BME280;25019;42.626;23.380;2023-04-21T06:52:54;94040.47;;;12.14;70.84
39301;BME280;25019;42.626;23.380;2023-04-21T06:55:20;94052.19;;;12.08;70.81
39301;BME280;25019;42.626;23.380;2023-04-21T06:57:46;94051.63;;;11.95;70.59
39301;BME280;25019;42.626;23.380;2023-04-21T07:00:12;94051.34;;;11.81;71.23
39301;BME280;25019;42.626;23.380;2023-04-21T07:02:38;94025.00;;;11.80;71.67
39301;BME280;25019;42.626;23.380;2023-04-21T07:05:04;94031.97;;;12.07;71.17
39301;BME280;25019;42.626;23.380;2023-04-21T07:07:29;93991.47;;;11.68;71.01
39301;BME280;25019;42.626;23.380;2023-04-21T07:09:55;94021.03;;;12.03;70.50
39301;BME280;25019;42.626;23.380;2023-04-21T07:12:21;94055.38;;;11.99;70.34
39301;BME280;25019;42.626;23.380;2023-04-21T07:14:46;94039.16;;;12.11;70.31
39301;BME280;25019;42.626;23.380;2023-04-21T07:17:12;94033.81;;;12.17;70.84
39301;BME280;25019;42.626;23.380;2023-04-21T07:19:38;94001.59;;;11.92;70.01
39301;BME280;25019;42.626;23.380;2023-04-21T07:22:04;94039.16;;;12.17;70.84
39301;BME280;25019;42.626;23.380;2023-04-21T07:24:30;94047.66;;;12.19;71.07
39301;BME280;25019;42.626;23.380;2023-04-21T07:26:56;94049.00;;;12.26;70.75
39301;BME280;25019;42.626;23.380;2023-04-21T07:29:22;94014.94;;;12.08;70.10
39301;BME280;25019;42.626;23.380;2023-04-21T07:31:48;94037.25;;;12.43;70.37
39301;BME280;25019;42.626;23.380;2023-04-21T07:34:14;94046.00;;;12.74;69.56
39301;BME280;25019;42.626;23.380;2023-04-21T07:36:39;94056.03;;;13.09;68.27
39301;BME280;25019;42.626;23.380;2023-04-21T07:39:05;94046.03;;;13.40;65.36
39301;BME280;25019;42.626;23.380;2023-04-21T07:41:31;94039.66;;;13.36;66.07
39301;BME280;25019;42.626;23.380;2023-04-21T07:43:56;93978.22;;;12.96;65.04
39301;BME280;25019;42.626;23.380;2023-04-21T07:46:22;93950.38;;;12.68;65.75
39301;BME280;25019;42.626;23.380;2023-04-21T07:48:55;94042.03;;;13.43;65.31
39301;BME280;25019;42.626;23.380;2023-04-21T07:51:22;94042.66;;;13.80;65.00
39301;BME280;25019;42.626;23.380;2023-04-21T07:53:48;94041.88;;;14.08;63.61
39301;BME280;25019;42.626;23.380;2023-04-21T07:56:14;94001.84;;;14.08;62.39
39301;BME280;25019;42.626;23.380;2023-04-21T07:58:40;93989.31;;;13.74;61.78
39301;BME280;25019;42.626;23.380;2023-04-21T08:01:06;94025.03;;;13.78;62.66
39301;BME280;25019;42.626;23.380;2023-04-21T08:03:31;93976.59;;;13.56;62.58
39301;BME280;25019;42.626;23.380;2023-04-21T08:05:57;94018.56;;;13.85;63.17
39301;BME280;25019;42.626;23.380;2023-04-21T08:08:22;94043.47;;;14.09;61.48
39301;BME280;25019;42.626;23.380;2023-04-21T08:10:48;93999.84;;;13.90;61.53
39301;BME280;25019;42.626;23.380;2023-04-21T08:13:14;94014.25;;;14.23;60.66
39301;BME280;25019;42.626;23.380;2023-04-21T08:15:39;94035.53;;;14.68;60.31
39301;BME280;25019;42.626;23.380;2023-04-21T08:18:06;94042.84;;;14.87;58.89
39301;BME280;25019;42.626;23.380;2023-04-21T08:20:32;94027.88;;;14.86;58.66
39301;BME280;25019;42.626;23.380;2023-04-21T08:22:57;94022.13;;;14.74;59.18
39301;BME280;25019;42.626;23.380;2023-04-21T08:25:23;94043.22;;;14.75;58.98
39301;BME280;25019;42.626;23.380;2023-04-21T08:27:49;93976.00;;;14.33;59.27
39301;BME280;25019;42.626;23.380;2023-04-21T08:30:14;94043.59;;;14.63;58.95
39301;BME280;25019;42.626;23.380;2023-04-21T08:32:40;94012.72;;;14.47;58.87
39301;BME280;25019;42.626;23.380;2023-04-21T08:35:06;94046.56;;;14.57;59.42
39301;BME280;25019;42.626;23.380;2023-04-21T08:37:35;94028.41;;;14.53;59.68
39301;BME280;25019;42.626;23.380;2023-04-21T08:40:02;94008.25;;;14.66;59.52
39301;BME280;25019;42.626;23.380;2023-04-21T08:42:28;94031.44;;;15.01;58.41
39301;BME280;25019;42.626;23.380;2023-04-21T08:44:54;94046.00;;;15.13;57.93
39301;BME280;25019;42.626;23.380;2023-04-21T08:47:21;94040.19;;;15.31;57.30
39301;BME280;25019;42.626;23.380;2023-04-21T08:49:49;94032.06;;;15.60;56.95
39301;BME280;25019;42.626;23.380;2023-04-21T08:52:16;94042.44;;;15.86;56.06
39301;BME280;25019;42.626;23.380;2023-04-21T08:54:43;94037.00;;;15.72;56.01
39301;BME280;25019;42.626;23.380;2023-04-21T08:57:08;93967.97;;;15.31;56.08
39301;BME280;25019;42.626;23.380;2023-04-21T08:59:34;93925.91;;;15.17;55.65
39301;BME280;25019;42.626;23.380;2023-04-21T09:02:14;93987.41;;;15.75;55.16
39301;BME280;25019;42.626;23.380;2023-04-21T09:04:42;94018.63;;;16.03;54.00
39301;BME280;25019;42.626;23.380;2023-04-21T09:07:08;93973.78;;;15.57;54.31
39301;BME280;25019;42.626;23.380;2023-04-21T09:09:51;94012.72;;;15.63;55.52
39301;BME280;25019;42.626;23.380;2023-04-21T09:12:17;93993.13;;;15.30;55.62
39301;BME280;25019;42.626;23.380;2023-04-21T09:14:43;94004.78;;;15.39;56.27
39301;BME280;25019;42.626;23.380;2023-04-21T09:17:09;94006.09;;;15.61;56.34
39301;BME280;25019;42.626;23.380;2023-04-21T09:19:35;94014.78;;;15.91;54.50
39301;BME280;25019;42.626;23.380;2023-04-21T09:22:01;93931.78;;;15.52;53.93
39301;BME280;25019;42.626;23.380;2023-04-21T09:24:27;94005.47;;;16.21;53.22
39301;BME280;25019;42.626;23.380;2023-04-21T09:26:53;94004.81;;;16.29;51.99
39301;BME280;25019;42.626;23.380;2023-04-21T09:29:22;93999.94;;;16.31;51.74
39301;BME280;25019;42.626;23.380;2023-04-21T09:31:49;93992.06;;;16.21;51.81
39301;BME280;25019;42.626;23.380;2023-04-21T09:34:19;93990.47;;;16.20;52.07
39301;BME280;25019;42.626;23.380;2023-04-21T09:36:46;93957.47;;;16.25;52.34
39301;BME280;25019;42.626;23.380;2023-04-21T09:39:12;93982.16;;;16.22;52.50
39301;BME280;25019;42.626;23.380;2023-04-21T09:41:39;93989.84;;;16.09;53.02
39301;BME280;25019;42.626;23.380;2023-04-21T09:44:05;93941.78;;;15.66;53.28
39301;BME280;25019;42.626;23.380;2023-04-21T09:46:34;93986.72;;;16.21;53.09
39301;BME280;25019;42.626;23.380;2023-04-21T09:49:01;93952.31;;;15.76;53.11
39301;BME280;25019;42.626;23.380;2023-04-21T09:51:28;93988.78;;;16.10;51.20
39301;BME280;25019;42.626;23.380;2023-04-21T09:53:59;93894.56;;;15.56;51.47
39301;BME280;25019;42.626;23.380;2023-04-21T09:56:32;93962.25;;;16.28;49.62
39301;BME280;25019;42.626;23.380;2023-04-21T09:59:05;93972.41;;;16.73;48.23
39301;BME280;25019;42.626;23.380;2023-04-21T10:01:32;93958.63;;;16.93;45.66
39301;BME280;25019;42.626;23.380;2023-04-21T10:04:00;93970.03;;;17.27;46.64
39301;BME280;25019;42.626;23.380;2023-04-21T10:06:27;93973.31;;;17.10;48.71
39301;BME280;25019;42.626;23.380;2023-04-21T10:08:53;93974.41;;;16.95;48.72
39301;BME280;25019;42.626;23.380;2023-04-21T10:11:21;93964.66;;;16.71;48.97
39301;BME280;25019;42.626;23.380;2023-04-21T10:13:47;93916.91;;;16.45;47.75
39301;BME280;25019;42.626;23.380;2023-04-21T10:16:16;93961.31;;;16.80;47.70
39301;BME280;25019;42.626;23.380;2023-04-21T10:18:45;93929.41;;;16.50;48.19
39301;BME280;25019;42.626;23.380;2023-04-21T10:21:12;93963.38;;;16.83;47.10
39301;BME280;25019;42.626;23.380;2023-04-21T10:23:49;93954.03;;;16.94;47.30
39301;BME280;25019;42.626;23.380;2023-04-21T10:26:22;93940.56;;;16.99;46.83
39301;BME280;25019;42.626;23.380;2023-04-21T10:29:04;93927.53;;;16.92;46.74
39301;BME280;25019;42.626;23.380;2023-04-21T10:34:18;93898.44;;;16.72;47.17
39301;BME280;25019;42.626;23.380;2023-04-21T10:39:10;93953.16;;;16.71;50.61
39301;BME280;25019;42.626;23.380;2023-04-21T10:41:38;93957.28;;;16.49;51.28
39301;BME280;25019;42.626;23.380;2023-04-21T10:44:12;93962.25;;;16.28;52.07
39301;BME280;25019;42.626;23.380;2023-04-21T10:46:46;93962.34;;;16.37;55.29
39301;BME280;25019;42.626;23.380;2023-04-21T10:49:28;93967.09;;;16.26;54.04
39301;BME280;25019;42.626;23.380;2023-04-21T10:57:08;93962.38;;;16.03;53.27
39301;BME280;25019;42.626;23.380;2023-04-21T10:59:34;93967.22;;;16.01;53.43
39301;BME280;25019;42.626;23.380;2023-04-21T11:02:07;93956.59;;;15.96;53.53
39301;BME280;25019;42.626;23.380;2023-04-21T11:04:35;93961.66;;;15.98;53.96
39301;BME280;25019;42.626;23.380;2023-04-21T11:07:10;93958.78;;;15.75;53.74
39301;BME280;25019;42.626;23.380;2023-04-21T11:09:36;93967.91;;;15.55;53.50
39301;BME280;25019;42.626;23.380;2023-04-21T11:12:06;93964.41;;;15.54;54.27
39301;BME280;25019;42.626;23.380;2023-04-21T11:14:33;93911.34;;;15.42;55.03
39301;BME280;25019;42.626;23.380;2023-04-21T11:17:03;93923.44;;;15.59;54.39
39301;BME280;25019;42.626;23.380;2023-04-21T11:19:33;93957.34;;;16.16;52.56
39301;BME280;25019;42.626;23.380;2023-04-21T11:21:58;93915.59;;;16.15;51.42
39301;BME280;25019;42.626;23.380;2023-04-21T11:24:24;93943.63;;;16.51;51.51
39301;BME280;25019;42.626;23.380;2023-04-21T11:26:50;93837.28;;;16.04;50.70
39301;BME280;25019;42.626;23.380;2023-04-21T11:29:16;93946.78;;;16.95;49.81
39301;BME280;25019;42.626;23.380;2023-04-21T11:31:44;93944.72;;;17.19;49.00
39301;BME280;25019;42.626;23.380;2023-04-21T11:34:11;93947.81;;;16.99;51.90
39301;BME280;25019;42.626;23.380;2023-04-21T11:36:39;93960.13;;;17.00;51.97
39301;BME280;25019;42.626;23.380;2023-04-21T11:39:06;93935.34;;;16.47;53.16
39301;BME280;25019;42.626;23.380;2023-04-21T11:41:39;93909.06;;;16.49;53.46
39301;BME280;25019;42.626;23.380;2023-04-21T11:44:09;93912.81;;;17.04;51.87
39301;BME280;25019;42.626;23.380;2023-04-21T11:46:36;93934.38;;;17.27;51.97
39301;BME280;25019;42.626;23.380;2023-04-21T11:49:06;93943.91;;;17.19;52.16
39301;BME280;25019;42.626;23.380;2023-04-21T11:51:37;93949.78;;;17.07;52.89
39301;BME280;25019;42.626;23.380;2023-04-21T11:54:05;93955.75;;;17.04;52.68
39301;BME280;25019;42.626;23.380;2023-04-21T11:56:35;93922.69;;;16.67;52.36
39301;BME280;25019;42.626;23.380;2023-04-21T11:59:16;93955.94;;;16.80;52.81
39301;BME280;25019;42.626;23.380;2023-04-21T12:01:51;93950.75;;;16.41;54.13
39301;BME280;25019;42.626;23.380;2023-04-21T12:04:19;93898.13;;;15.84;54.32
39301;BME280;25019;42.626;23.380;2023-04-21T12:06:48;93948.84;;;16.28;53.49
39301;BME280;25019;42.626;23.380;2023-04-21T12:09:20;93943.66;;;16.17;53.47
39301;BME280;25019;42.626;23.380;2023-04-21T12:11:50;93956.38;;;16.26;53.13
39301;BME280;25019;42.626;23.380;2023-04-21T12:14:17;93958.94;;;16.31;52.58
39301;BME280;25019;42.626;23.380;2023-04-21T12:16:43;93954.97;;;16.14;51.41
39301;BME280;25019;42.626;23.380;2023-04-21T12:19:09;93876.22;;;15.63;50.98
39301;BME280;25019;42.626;23.380;2023-04-21T12:21:36;93860.59;;;15.70;49.77
39301;BME280;25019;42.626;23.380;2023-04-21T12:24:05;93958.88;;;16.50;49.01
39301;BME280;25019;42.626;23.380;2023-04-21T12:26:31;93940.34;;;16.54;48.81
39301;BME280;25019;42.626;23.380;2023-04-21T12:28:57;93957.13;;;16.73;47.27
39301;BME280;25019;42.626;23.380;2023-04-21T12:31:25;93929.03;;;16.43;48.14
39301;BME280;25019;42.626;23.380;2023-04-21T12:33:51;93942.09;;;16.30;47.90
39301;BME280;25019;42.626;23.380;2023-04-21T12:36:16;93938.72;;;16.25;48.47
39301;BME280;25019;42.626;23.380;2023-04-21T12:38:42;93940.03;;;16.41;47.10
39301;BME280;25019;42.626;23.380;2023-04-21T12:41:09;93912.44;;;16.69;46.68
39301;BME280;25019;42.626;23.380;2023-04-21T12:43:35;93957.91;;;16.60;47.65
39301;BME280;25019;42.626;23.380;2023-04-21T12:46:01;93952.25;;;16.75;47.54
39301;BME280;25019;42.626;23.380;2023-04-21T12:48:27;93936.34;;;16.79;47.47
39301;BME280;25019;42.626;23.380;2023-04-21T12:50:52;93947.31;;;17.11;47.46
39301;BME280;25019;42.626;23.380;2023-04-21T12:53:18;93951.59;;;17.48;46.90
39301;BME280;25019;42.626;23.380;2023-04-21T12:55:44;93943.56;;;17.48;46.87
39301;BME280;25019;42.626;23.380;2023-04-21T12:58:09;93947.94;;;17.67;46.58
39301;BME280;25019;42.626;23.380;2023-04-21T13:00:37;93943.72;;;17.15;47.11